Terminal Aerodrome Forecast
Issued by NWS

Home | Current Version | Previous Version | Text Only | Print | Product List | Glossary On
Versions: 1 2 3 4 5 6 7 8 9 10 11 12 13 14 15 16 17 18 19 20 21 22 23
370
FTUS43 KILX 231330 AAB
TAFCMI
TAF AMD
KCMI 231330Z 2314/2412 VRB03KT 1/4SM FG VV001
      TEMPO 2315/2316 1SM BR
     FM231600 05004KT 5SM BR SCT010
     FM232000 09008KT P6SM VCSH BKN035
     FM240100 10010KT P6SM VCTS OVC015CB
     FM240600 16011KT P6SM VCSH OVC015=

USA.gov is the U.S. government's official web portal to all federal, state and local government web resources and services.